Morehead City, North Carolina
Current Conditions -  °F | °C
As of 3:58 AM on Saturday 29 Nov 2014 (Local Time) from KMRH Reporting Station
Clear Clear  
Wind Chill: 31°   Ceiling: Unl
Heat Index: 31°   Visibility: 10mi
Dew Point: 29°   Wind: 0mph
Humidity: 92%   Direction: NA
Pressure: 30.35"   Gusts: NA
Location:  34.72°N, 76.72°W
Report Text: KMRH 290858Z AUTO 00000KT 10SM CLR M01/M02 A3035 RMK AO2 SLP277 T10061017 51009 TSNO
Loading
Personal Weather Stations






























Interactive Weather Map New forecast layout! Learn more

10-Day Weather Forecast

Advertisements
Track Severe Weather on mobile